Seven Island Tairyo — JJ3885 — position and weather

sailwx.info

Track history (hours):
 
Tides and Currents Weather Stations Pressure Air Temp Water Temp Dewpoint Dewpoint Depression Visibility Wind Speed Wind Dir Waves Ship Positions

Seven Island Tairyo

Last reported at 2018-Jun-22 08:08 UTC. Time now 2018-Jun-22 08:55 UTC.
Position N 35°37' E 139°46'.

Length 22 m.

Type: Passenger vessel. MMSI: 431602169.

Date/timePositionNaut miles runAvg speedWind from/ knotsBaromVisibWave heightAir tempDewpointWater temp
2018-Jun-22 08:08N 35°37' E 139°46'536.7
2018-Jun-22 07:59N 35°33' E 139°50'1734.9
2018-Jun-22 07:31N 35°16' E 139°47'5 0.7
2018-Jun-22 00:43N 35°11' E 139°47'733.8
2018-Jun-22 00:30N 35°18' E 139°45'20 1.3
2018-Jun-21 08:46N 35°38' E 139°46'510.8
2018-Jun-21 08:20N 35°34' E 139°49'1339.6
2018-Jun-21 08:01N 35°22' E 139°46'12 0.5
2018-Jun-20 06:05N 35°10' E 139°46'341.7
2018-Jun-20 06:00N 35°13' E 139°47'26 8.7
2018-Jun-20 03:04N 35°39' E 139°46'437.8
2018-Jun-20 02:58N 35°35' E 139°48'1737.0
2018-Jun-20 02:31N 35°18' E 139°45'7 2.8
2018-Jun-20 00:04N 35°12' E 139°47'340.6
2018-Jun-20 00:00N 35°14' E 139°47'21 1.3
2018-Jun-19 07:59N 35°35' E 139°48'2039.5
2018-Jun-19 07:29N 35°15' E 139°47'4 0.5
2018-Jun-19 00:37N 35°12' E 139°47'740.2
2018-Jun-19 00:27N 35°18' E 139°45'21 1.3
2018-Jun-18 08:29N 35°39' E 139°46'1837.5
2018-Jun-18 08:01N 35°21' E 139°46'12 0.4
2018-Jun-17 06:07N 35°10' E 139°47'540.7
2018-Jun-17 06:00N 35°14' E 139°47'2037.6
2018-Jun-17 05:28N 35°34' E 139°48'2 0.7
2018-Jun-17 02:57N 35°33' E 139°50'1738.1
2018-Jun-17 02:30N 35°16' E 139°47'3 1.3
2018-Jun-17 00:01N 35°13' E 139°47'042.6
2018-Jun-17 00:00N 35°13' E 139°47'2538.2
2018-Jun-16 23:21N 35°38' E 139°46'1 0.1
2018-Jun-16 08:20N 35°37' E 139°46'1236.2
2018-Jun-16 08:00N 35°25' E 139°48'13 1.8
2018-Jun-16 00:44N 35°13' E 139°44'1 1.5
2018-Jun-16 00:18N 35°13' E 139°44'1136.5
2018-Jun-16 00:00N 35°24' E 139°46'11 0.7
2018-Jun-15 08:40N 35°35' E 139°48'7 6.5
2018-Jun-15 07:36N 35°31' E 139°55'440.9
2018-Jun-15 07:30N 35°28' E 139°52'17 2.2
2018-Jun-14 23:45N 35°12' E 139°47'1040.0
2018-Jun-14 23:30N 35°22' E 139°46'13 8.2
2018-Jun-14 21:52N 35°34' E 139°53'4 0.3
2018-Jun-14 08:01N 35°34' E 139°49'142.4
2018-Jun-14 08:00N 35°33' E 139°49'1837.2
2018-Jun-14 07:30N 35°15' E 139°47'2 0.3
2018-Jun-14 00:35N 35°13' E 139°47'538.9
2018-Jun-14 00:28N 35°18' E 139°46'2117.4
2018-Jun-13 23:16N 35°38' E 139°46'2 0.1
2018-Jun-13 08:28N 35°37' E 139°46'1838.2
2018-Jun-13 08:01N 35°19' E 139°45'7 0.8
2018-Jun-12 22:30N 35°12' E 139°47'2439.0
2018-Jun-12 21:53N 35°37' E 139°46'  
Track history (hours):
 
Tides and Currents Weather Stations Pressure Air Temp Water Temp Dewpoint Dewpoint Depression Visibility Wind Speed Wind Dir Waves Ship Positions

Seven Island Tairyo

Last reported at 2018-Jun-22 08:08 UTC. Time now 2018-Jun-22 08:55 UTC.
Position N 35°37' E 139°46'.

Length 22 m.

Type: Passenger vessel. MMSI: 431602169.

Date/timePositionNaut miles runAvg speedWind from/ knotsBaromVisibWave heightAir tempDewpointWater temp
2018-Jun-22 08:08N 35°37' E 139°46'536.7
2018-Jun-22 07:59N 35°33' E 139°50'1734.9
2018-Jun-22 07:31N 35°16' E 139°47'5 0.7
2018-Jun-22 00:43N 35°11' E 139°47'733.8
2018-Jun-22 00:30N 35°18' E 139°45'20 1.3
2018-Jun-21 08:46N 35°38' E 139°46'510.8
2018-Jun-21 08:20N 35°34' E 139°49'1339.6
2018-Jun-21 08:01N 35°22' E 139°46'12 0.5
2018-Jun-20 06:05N 35°10' E 139°46'341.7
2018-Jun-20 06:00N 35°13' E 139°47'26 8.7
2018-Jun-20 03:04N 35°39' E 139°46'437.8
2018-Jun-20 02:58N 35°35' E 139°48'1737.0
2018-Jun-20 02:31N 35°18' E 139°45'7 2.8
2018-Jun-20 00:04N 35°12' E 139°47'340.6
2018-Jun-20 00:00N 35°14' E 139°47'21 1.3
2018-Jun-19 07:59N 35°35' E 139°48'2039.5
2018-Jun-19 07:29N 35°15' E 139°47'4 0.5
2018-Jun-19 00:37N 35°12' E 139°47'740.2
2018-Jun-19 00:27N 35°18' E 139°45'21 1.3
2018-Jun-18 08:29N 35°39' E 139°46'1837.5
2018-Jun-18 08:01N 35°21' E 139°46'12 0.4
2018-Jun-17 06:07N 35°10' E 139°47'540.7
2018-Jun-17 06:00N 35°14' E 139°47'2037.6
2018-Jun-17 05:28N 35°34' E 139°48'2 0.7
2018-Jun-17 02:57N 35°33' E 139°50'1738.1
2018-Jun-17 02:30N 35°16' E 139°47'3 1.3
2018-Jun-17 00:01N 35°13' E 139°47'042.6
2018-Jun-17 00:00N 35°13' E 139°47'2538.2
2018-Jun-16 23:21N 35°38' E 139°46'1 0.1
2018-Jun-16 08:20N 35°37' E 139°46'1236.2
2018-Jun-16 08:00N 35°25' E 139°48'13 1.8
2018-Jun-16 00:44N 35°13' E 139°44'1 1.5
2018-Jun-16 00:18N 35°13' E 139°44'1136.5
2018-Jun-16 00:00N 35°24' E 139°46'11 0.7
2018-Jun-15 08:40N 35°35' E 139°48'7 6.5
2018-Jun-15 07:36N 35°31' E 139°55'440.9
2018-Jun-15 07:30N 35°28' E 139°52'17 2.2
2018-Jun-14 23:45N 35°12' E 139°47'1040.0
2018-Jun-14 23:30N 35°22' E 139°46'13 8.2
2018-Jun-14 21:52N 35°34' E 139°53'4 0.3
2018-Jun-14 08:01N 35°34' E 139°49'142.4
2018-Jun-14 08:00N 35°33' E 139°49'1837.2
2018-Jun-14 07:30N 35°15' E 139°47'2 0.3
2018-Jun-14 00:35N 35°13' E 139°47'538.9
2018-Jun-14 00:28N 35°18' E 139°46'2117.4
2018-Jun-13 23:16N 35°38' E 139°46'2 0.1
2018-Jun-13 08:28N 35°37' E 139°46'1838.2
2018-Jun-13 08:01N 35°19' E 139°45'7 0.8
2018-Jun-12 22:30N 35°12' E 139°47'2439.0
2018-Jun-12 21:53N 35°37' E 139°46'  

Dump ship's entire track history